Time;durP1;ratioP1;P1;durP2;ratioP2;P2;SDS_P1;SDS_P2;PMS_P1;PMS_P2;Temp;Humidity;BMP_temperature;BMP_pressure;BME280_temperature;BME280_humidity;BME280_pressure;Samples;Min_cycle;Max_cycle;Signal;HPM_P1;HPM_P2
2022/05/05 00:00:14;;;;;;;20.13;4.03;;;12.90;99.90;;;12.63;100.00;100810.50;4984163;28;20216;-73
2022/05/05 00:02:42;;;;;;;16.42;3.10;;;12.80;99.90;;;12.71;100.00;100814.09;4969773;28;20213;-74
2022/05/05 00:05:10;;;;;;;19.38;3.72;;;12.80;99.90;;;12.66;100.00;100821.13;4967562;28;20230;-74
2022/05/05 00:07:38;;;;;;;17.92;3.55;;;12.80;99.90;;;12.63;100.00;100818.47;4971706;28;20237;-73
2022/05/05 00:14:23;;;;;;;8.68;1.75;;;12.80;99.90;;;12.62;100.00;100816.69;4972278;28;20208;-74
2022/05/05 00:15:52;;;;;;;14.43;3.10;;;12.80;99.90;;;12.71;100.00;100819.41;4953148;28;20225;-74
2022/05/05 00:18:20;;;;;;;8.35;1.80;;;12.80;99.90;;;12.76;100.00;100821.19;4981569;28;20216;-74
2022/05/05 00:20:48;;;;;;;12.77;2.58;;;12.80;99.90;;;12.81;100.00;100816.81;4989292;28;20209;-74
2022/05/05 00:23:16;;;;;;;8.90;1.85;;;12.90;99.90;;;12.83;100.00;100815.06;4971645;28;20209;-74
2022/05/05 00:25:44;;;;;;;24.77;4.82;;;12.90;99.90;;;12.77;100.00;100819.44;4967493;28;20245;-74
2022/05/05 00:28:12;;;;;;;7.82;1.65;;;12.90;99.90;;;12.77;100.00;100827.41;4967038;28;20573;-74
2022/05/05 00:30:42;;;;;;;24.85;4.85;;;12.90;99.90;;;12.77;100.00;100838.91;4948739;28;20212;-75
2022/05/05 00:33:10;;;;;;;23.17;4.43;;;12.90;99.90;;;12.81;100.00;100842.47;4969533;28;20213;-74
2022/05/05 00:35:37;;;;;;;18.90;3.78;;;12.90;99.90;;;12.82;100.00;100844.22;4968707;28;20232;-74
2022/05/05 00:38:05;;;;;;;21.85;4.30;;;13.00;99.90;;;12.82;100.00;100836.28;4968703;28;20220;-74
2022/05/05 00:40:33;;;;;;;19.95;3.85;;;13.00;99.90;;;12.78;100.00;100843.31;4970483;28;20206;-75
2022/05/05 00:43:02;;;;;;;11.45;2.72;;;12.90;99.90;;;12.78;100.00;100837.13;4969373;28;20213;-75
2022/05/05 00:45:30;;;;;;;13.80;2.65;;;12.90;99.90;;;12.74;100.00;100852.16;4966528;28;20268;-74
2022/05/05 00:48:06;;;;;;;19.63;3.88;;;12.90;99.90;;;12.74;100.00;100860.09;4972226;28;20220;-74
2022/05/05 00:50:36;;;;;;;19.50;3.83;;;12.90;99.90;;;12.73;100.00;100855.69;4983512;28;20212;-74
2022/05/05 00:53:05;;;;;;;14.85;3.10;;;12.90;99.90;;;12.66;100.00;100856.50;4967086;28;20228;-74
2022/05/05 00:55:36;;;;;;;17.35;3.40;;;12.90;99.90;;;12.52;100.00;100859.94;4968396;28;20213;-74
2022/05/05 00:58:05;;;;;;;17.67;3.53;;;12.80;99.90;;;12.49;100.00;100874.97;4972318;28;20204;-74
2022/05/05 01:00:34;;;;;;;16.65;3.33;;;12.80;99.90;;;12.59;100.00;100869.72;4952266;28;20206;-76
2022/05/05 01:03:02;;;;;;;25.38;5.10;;;12.70;99.90;;;12.67;100.00;100878.63;4967927;28;20205;-76
2022/05/05 01:05:32;;;;;;;15.07;2.97;;;12.70;99.90;;;12.72;100.00;100871.59;4965516;28;20217;-75
2022/05/05 01:08:02;;;;;;;17.10;3.30;;;12.70;99.90;;;12.64;100.00;100865.34;4937567;28;20217;-75
2022/05/05 01:10:30;;;;;;;17.02;3.35;;;12.80;99.90;;;12.54;100.00;100877.66;4948976;28;20217;-73
2022/05/05 01:13:01;;;;;;;24.65;4.72;;;12.70;99.90;;;12.48;100.00;100890.84;4965115;28;20240;-73
2022/05/05 01:15:30;;;;;;;28.17;5.45;;;12.70;99.90;;;12.46;100.00;100898.81;4965035;28;20224;-74
2022/05/05 01:17:58;;;;;;;24.55;4.68;;;12.70;99.90;;;12.47;100.00;100882.00;4965016;28;20205;-74
2022/05/05 01:20:26;;;;;;;18.30;3.75;;;12.60;99.90;;;12.57;100.00;100884.75;4958458;28;20209;-74
2022/05/05 01:22:54;;;;;;;17.77;3.45;;;12.70;99.90;;;12.53;100.00;100891.78;4966018;28;20213;-74
2022/05/05 01:28:12;;;;;;;13.95;2.92;;;12.70;99.90;;;12.39;100.00;100912.88;4968657;28;20213;-73
2022/05/05 01:30:45;;;;;;;17.65;3.53;;;12.60;99.90;;;12.54;100.00;100892.69;4964959;28;20677;-75
2022/05/05 01:33:19;;;;;;;17.27;3.65;;;12.60;99.90;;;12.59;100.00;100902.44;4933859;28;20216;-75
2022/05/05 01:35:51;;;;;;;19.70;3.92;;;12.60;99.90;;;12.35;100.00;100926.09;4963548;28;20242;-74
2022/05/05 01:38:22;;;;;;;19.85;3.95;;;12.60;99.90;;;12.34;100.00;100940.25;4964593;28;20210;-74
2022/05/05 01:40:50;;;;;;;25.58;4.95;;;12.50;99.90;;;12.44;100.00;100920.88;4949331;28;20665;-74
2022/05/05 01:43:23;;;;;;;21.58;4.25;;;12.50;99.90;;;12.33;100.00;100925.19;4961261;28;20655;-73
2022/05/05 01:45:51;;;;;;;17.77;3.55;;;12.50;99.90;;;12.27;100.00;100949.91;4963712;28;20244;-74
2022/05/05 01:48:19;;;;;;;26.10;4.97;;;12.50;99.90;;;12.37;100.00;100946.47;4963153;28;20209;-74
2022/05/05 01:50:48;;;;;;;35.95;6.75;;;12.50;99.90;;;12.39;100.00;100946.47;4962434;28;20212;-75
2022/05/05 01:53:16;;;;;;;19.75;4.00;;;12.50;99.90;;;12.40;100.00;100941.19;4964035;28;20217;-74
2022/05/05 01:55:44;;;;;;;14.85;2.90;;;12.50;99.90;;;12.39;100.00;100946.47;4963160;28;20236;-73
2022/05/05 01:58:12;;;;;;;19.70;3.80;;;12.50;99.90;;;12.37;100.00;100958.84;4963060;28;20209;-74
2022/05/05 02:00:40;;;;;;;20.38;3.88;;;12.50;99.90;;;12.47;100.00;100931.53;4963760;28;20220;-74
2022/05/05 02:03:15;;;;;;;23.50;4.60;;;12.50;99.90;;;12.52;100.00;100936.88;4966678;28;20213;-74
2022/05/05 02:05:45;;;;;;;24.17;4.75;;;12.50;99.90;;;12.54;100.00;100937.78;4963466;28;20235;-74
2022/05/05 02:08:13;;;;;;;21.40;4.13;;;12.60;99.90;;;12.46;100.00;100950.97;4964120;28;20233;-74
2022/05/05 02:10:41;;;;;;;29.88;5.68;;;12.60;99.90;;;12.42;100.00;100959.78;4964811;28;20209;-74
2022/05/05 02:13:10;;;;;;;16.38;3.40;;;12.60;99.90;;;12.40;100.00;100972.13;4963986;28;20235;-74
2022/05/05 02:15:38;;;;;;;17.73;3.45;;;12.50;99.90;;;12.40;100.00;100978.31;4964096;28;20548;-74
2022/05/05 02:18:08;;;;;;;13.15;2.63;;;12.50;99.90;;;12.43;100.00;100974.81;4965186;28;20213;-75
2022/05/05 02:20:38;;;;;;;20.65;3.97;;;12.60;99.90;;;12.37;100.00;100994.22;4963232;28;20213;-75
2022/05/05 02:23:07;;;;;;;23.90;4.63;;;12.60;99.90;;;12.39;100.00;100996.88;4966573;28;20208;-74
2022/05/05 02:25:37;;;;;;;16.85;3.42;;;12.60;99.90;;;12.44;100.00;101006.66;4966529;28;20233;-74
2022/05/05 02:28:06;;;;;;;13.32;2.78;;;12.60;99.90;;;12.48;100.00;101003.16;4969443;28;20243;-75
2022/05/05 02:30:34;;;;;;;23.65;4.53;;;12.60;99.90;;;12.48;100.00;101007.59;4970222;28;20212;-75
2022/05/05 02:33:02;;;;;;;15.25;3.08;;;12.60;99.90;;;12.46;100.00;101010.22;4963261;28;20224;-74
2022/05/05 02:35:30;;;;;;;13.57;2.80;;;12.60;99.90;;;12.43;100.00;101011.94;4971695;28;20214;-74
2022/05/05 02:40:45;;;;;;;16.52;3.45;;;12.60;99.90;;;12.31;100.00;101020.66;4974159;28;20670;-74
2022/05/05 02:43:13;;;;;;;12.38;2.63;;;12.60;99.90;;;12.33;100.00;101039.25;4972685;28;20210;-74
2022/05/05 02:45:41;;;;;;;19.30;3.78;;;12.60;99.90;;;12.28;100.00;101048.91;4975944;28;20237;-74
2022/05/05 02:48:09;;;;;;;15.50;3.15;;;12.50;99.90;;;12.23;100.00;101053.28;4974932;28;20572;-74
2022/05/05 02:50:37;;;;;;;18.05;3.55;;;12.50;99.90;;;12.31;100.00;101070.16;4972512;28;20205;-73
2022/05/05 02:55:55;;;;;;;14.05;2.78;;;12.40;99.90;;;12.21;100.00;101092.13;4971293;28;20225;-73
2022/05/05 02:58:23;;;;;;;37.05;6.78;;;12.40;99.90;;;12.03;100.00;101096.34;4985820;28;20221;-73
2022/05/05 03:00:51;;;;;;;29.38;5.93;;;12.30;99.90;;;12.02;100.00;101097.19;4973045;28;20209;-73
2022/05/05 03:03:19;;;;;;;28.48;5.45;;;12.30;99.90;;;12.03;100.00;101103.38;4969462;28;20216;-74
2022/05/05 03:05:47;;;;;;;12.93;2.67;;;12.30;99.90;;;12.09;100.00;101114.97;4970122;28;20225;-75
2022/05/05 03:08:15;;;;;;;9.27;1.85;;;12.30;99.90;;;12.16;100.00;101123.91;4957512;28;20706;-74
2022/05/05 03:10:43;;;;;;;18.10;3.50;;;12.20;99.90;;;12.12;100.00;101122.97;4968872;28;20202;-73
2022/05/05 03:13:11;;;;;;;26.35;5.13;;;12.20;99.90;;;12.06;100.00;101127.28;4968911;28;20229;-74
2022/05/05 03:15:39;;;;;;;19.25;3.78;;;12.20;99.90;;;12.06;100.00;101138.78;4968013;28;20237;-74
2022/05/05 03:18:07;;;;;;;23.73;4.68;;;12.20;99.90;;;12.12;100.00;101133.56;4950997;28;20614;-74
2022/05/05 03:20:35;;;;;;;11.27;2.38;;;12.20;99.90;;;12.17;100.00;101129.22;4975171;28;20205;-73
2022/05/05 03:23:03;;;;;;;12.30;2.53;;;12.20;99.90;;;12.30;100.00;101124.97;4973618;28;20209;-73
2022/05/05 03:25:31;;;;;;;6.47;1.25;;;12.30;99.90;;;12.29;100.00;101130.25;4989883;28;20220;-74
2022/05/05 03:28:00;;;;;;;18.77;3.78;;;12.30;99.90;;;12.30;100.00;101124.09;4970725;28;20233;-74
2022/05/05 03:30:28;;;;;;;10.52;2.17;;;12.30;99.90;;;12.32;100.00;101112.63;4968649;28;20205;-73
2022/05/05 03:32:56;;;;;;;17.33;3.40;;;12.40;99.90;;;12.32;100.00;101120.56;4968675;28;20698;-73
2022/05/05 03:35:24;;;;;;;16.70;3.20;;;12.40;99.90;;;12.25;100.00;101139.94;4970919;28;20205;-73
2022/05/05 03:37:52;;;;;;;17.50;3.47;;;12.40;99.90;;;12.20;100.00;101146.03;4972324;28;20224;-73
2022/05/05 03:40:20;;;;;;;11.77;2.45;;;12.30;99.90;;;12.15;100.00;101164.53;4969042;28;20209;-73
2022/05/05 03:42:48;;;;;;;19.80;4.18;;;12.30;99.90;;;12.16;100.00;101172.53;4956540;28;20208;-73
2022/05/05 03:45:16;;;;;;;19.45;4.05;;;12.30;99.90;;;12.16;100.00;101184.88;4971117;28;20214;-73
2022/05/05 03:47:45;;;;;;;15.63;3.10;;;12.20;99.90;;;12.16;100.00;101180.47;4972975;28;20260;-73
2022/05/05 03:50:13;;;;;;;11.05;2.30;;;12.30;99.90;;;12.13;100.00;101196.34;4974860;28;20208;-73
2022/05/05 03:52:41;;;;;;;9.57;2.08;;;12.30;99.90;;;12.16;100.00;101187.53;4973277;28;20209;-73
2022/05/05 03:55:09;;;;;;;22.73;4.63;;;12.30;99.90;;;12.16;100.00;101204.34;4968507;28;20660;-73
2022/05/05 03:57:37;;;;;;;18.73;3.88;;;12.30;99.90;;;12.13;100.00;101193.69;4970298;28;20248;-73
2022/05/05 04:00:07;;;;;;;17.52;3.60;;;12.30;99.90;;;12.14;100.00;101203.44;4953235;28;20212;-72
2022/05/05 04:02:41;;;;;;;24.48;4.78;;;12.30;99.90;;;12.11;100.00;101191.88;4970913;28;20220;-73
2022/05/05 04:05:09;;;;;;;26.73;5.32;;;12.20;99.90;;;12.20;100.00;101209.69;4970831;28;20209;-73
2022/05/05 04:07:37;;;;;;;18.95;3.72;;;12.20;99.90;;;12.16;100.00;101217.59;4977138;28;20248;-72
2022/05/05 04:10:07;;;;;;;19.65;4.00;;;12.20;99.90;;;12.11;100.00;101213.09;4951506;28;20201;-73
2022/05/05 04:12:35;;;;;;;18.50;3.75;;;12.20;99.90;;;12.07;100.00;101219.22;4973256;28;20216;-73
2022/05/05 04:15:03;;;;;;;24.77;4.82;;;12.20;99.90;;;12.02;100.00;101224.44;4970299;28;20205;-73
2022/05/05 04:17:31;;;;;;;9.05;2.05;;;12.20;99.90;;;11.96;100.00;101226.13;4974010;28;20233;-73
2022/05/05 04:19:59;;;;;;;13.95;2.92;;;12.20;99.90;;;11.82;100.00;101229.44;4987460;28;20201;-73
2022/05/05 04:22:27;;;;;;;19.02;3.88;;;12.10;99.90;;;11.80;100.00;101209.97;4975007;28;20216;-73
2022/05/05 04:24:55;;;;;;;23.20;4.53;;;12.10;99.90;;;11.91;100.00;101220.75;4985089;28;20209;-73
2022/05/05 04:27:23;;;;;;;20.25;4.00;;;12.00;99.90;;;11.87;100.00;101229.50;4975022;28;20626;-73
2022/05/05 04:29:51;;;;;;;14.60;2.97;;;12.00;99.90;;;11.84;100.00;101233.00;4952394;28;20260;-75
2022/05/05 04:32:20;;;;;;;13.95;2.95;;;12.00;99.90;;;11.79;100.00;101232.03;4970434;28;20216;-74
2022/05/05 04:34:48;;;;;;;7.85;1.83;;;12.00;99.90;;;11.70;100.00;101246.81;4954186;28;20732;-75
2022/05/05 04:37:22;;;;;;;23.63;4.78;;;12.00;99.90;;;11.59;100.00;101249.28;4955390;28;20609;-74
2022/05/05 04:39:50;;;;;;;12.77;2.60;;;11.90;99.90;;;11.55;100.00;101234.19;4989865;28;20220;-74
2022/05/05 04:42:19;;;;;;;13.45;2.78;;;11.80;99.90;;;11.62;100.00;101237.84;4988737;28;20682;-76
2022/05/05 04:44:47;;;;;;;6.22;1.45;;;11.80;99.90;;;11.62;100.00;101238.72;4977081;28;20205;-74
2022/05/05 04:47:14;;;;;;;4.78;1.15;;;11.80;99.90;;;11.71;100.00;101228.31;4972882;28;20233;-75
2022/05/05 04:49:42;;;;;;;7.78;1.77;;;11.80;99.90;;;11.75;100.00;101224.88;4972354;28;20547;-75
2022/05/05 04:52:10;;;;;;;5.00;1.10;;;11.80;99.90;;;11.81;100.00;101227.66;4973644;28;20577;-74
2022/05/05 04:54:38;;;;;;;6.55;1.42;;;11.90;99.90;;;11.69;100.00;101198.22;4977204;28;20205;-75
2022/05/05 04:57:07;;;;;;;6.60;1.48;;;11.90;99.90;;;11.68;100.00;101169.94;4952045;29;20237;-75
2022/05/05 04:59:34;;;;;;;7.82;1.67;;;11.90;99.90;;;11.78;100.00;101155.16;4977528;28;20659;-75
2022/05/05 05:02:03;;;;;;;10.80;2.33;;;11.90;99.90;;;11.81;100.00;101147.25;4972187;28;20212;-75
2022/05/05 05:04:32;;;;;;;8.02;1.75;;;11.90;99.90;;;11.79;100.00;101133.09;4972811;28;20212;-75
2022/05/05 05:06:59;;;;;;;7.28;1.65;;;11.90;99.90;;;11.77;100.00;101135.72;4960848;28;20248;-75
2022/05/05 05:09:27;;;;;;;15.15;3.08;;;11.80;99.90;;;11.80;100.00;101137.53;4971573;28;20236;-76
2022/05/05 05:11:55;;;;;;;8.30;1.90;;;11.90;99.90;;;11.83;100.00;101149.06;4971949;28;20225;-75
2022/05/05 05:14:23;;;;;;;7.40;1.70;;;11.90;99.90;;;11.78;100.00;101150.75;4973351;28;20205;-75
2022/05/05 05:16:52;;;;;;;19.02;4.05;;;11.90;99.90;;;11.77;100.00;101170.16;4956387;28;20224;-77
2022/05/05 05:19:21;;;;;;;16.63;3.42;;;11.90;99.90;;;11.70;100.00;101168.25;4969279;28;20201;-75
2022/05/05 05:21:49;;;;;;;19.35;4.07;;;11.80;99.90;;;11.68;100.00;101180.56;4948285;28;20196;-75
2022/05/05 05:24:17;;;;;;;15.32;3.15;;;11.80;99.90;;;11.62;100.00;101193.69;4970125;28;20216;-75
2022/05/05 05:26:45;;;;;;;6.38;1.45;;;11.80;99.90;;;11.67;100.00;101222.91;4983004;28;20232;-74
2022/05/05 05:29:13;;;;;;;9.30;2.20;;;11.80;99.90;;;11.61;100.00;101220.16;4979785;28;20231;-74
2022/05/05 05:31:41;;;;;;;11.88;3.33;;;11.80;99.90;;;11.62;100.00;101224.59;4977285;28;20210;-74
2022/05/05 05:34:09;;;;;;;14.65;3.35;;;11.80;99.90;;;11.70;100.00;101237.16;4989383;28;20220;-74
2022/05/05 05:36:39;;;;;;;14.20;3.22;;;11.70;99.90;;;11.69;100.00;101248.56;4981604;28;20228;-74
2022/05/05 05:39:06;;;;;;;13.07;2.97;;;11.70;99.90;;;11.73;100.00;101258.41;4975127;28;20200;-75
2022/05/05 05:41:34;;;;;;;18.15;3.72;;;11.70;99.90;;;11.71;100.00;101265.44;4982781;28;20209;-74
2022/05/05 05:44:03;;;;;;;12.30;2.92;;;11.80;99.90;;;11.67;100.00;101265.31;4957173;28;20580;-74
2022/05/05 05:46:31;;;;;;;11.57;2.45;;;11.80;99.90;;;11.68;100.00;101275.94;4990074;28;20221;-73
2022/05/05 05:48:59;;;;;;;14.95;3.22;;;11.80;99.90;;;11.71;100.00;101281.31;4970688;28;20244;-73
2022/05/05 05:51:34;;;;;;;10.98;2.35;;;11.70;99.90;;;11.72;100.00;101283.09;4986375;28;20198;-73
2022/05/05 05:54:03;;;;;;;11.32;2.60;;;11.70;99.90;;;11.76;100.00;101306.16;4970557;28;20666;-73
2022/05/05 05:56:31;;;;;;;12.02;2.45;;;11.80;99.90;;;11.76;100.00;101302.59;4970621;28;20237;-73
2022/05/05 05:59:03;;;;;;;16.23;3.25;;;11.80;99.90;;;11.74;100.00;101315.81;4960634;28;20210;-73
2022/05/05 06:04:18;;;;;;;13.57;2.85;;;11.80;99.90;;;11.80;100.00;101325.69;4965444;28;20210;-74
2022/05/05 06:06:46;;;;;;;11.63;2.42;;;11.80;99.90;;;11.85;100.00;101331.97;4972413;28;20225;-73
2022/05/05 06:09:15;;;;;;;10.23;2.13;;;11.80;99.90;;;11.82;100.00;101346.03;4962838;28;20633;-73
2022/05/05 06:11:43;;;;;;;8.35;1.83;;;11.80;99.90;;;11.82;100.00;101348.69;4976059;28;20224;-73
2022/05/05 06:14:11;;;;;;;10.20;2.15;;;11.80;99.90;;;11.86;100.00;101362.91;4970669;28;20197;-73
2022/05/05 06:16:39;;;;;;;14.02;2.88;;;11.80;99.90;;;11.85;100.00;101369.97;4980823;28;20321;-73
2022/05/05 06:19:07;;;;;;;11.10;2.35;;;11.80;99.90;;;11.84;100.00;101375.22;4976312;28;20209;-74
2022/05/05 06:21:35;;;;;;;11.75;2.45;;;11.80;99.90;;;11.81;100.00;101368.13;4977023;28;20661;-74
2022/05/05 06:24:04;;;;;;;14.80;3.13;;;11.80;99.90;;;11.85;100.00;101377.91;4988409;28;20228;-74
2022/05/05 06:26:32;;;;;;;7.25;1.63;;;11.80;99.90;;;11.80;100.00;101371.63;4983231;28;20229;-74
2022/05/05 06:29:00;;;;;;;12.73;2.58;;;11.90;99.90;;;11.76;100.00;101385.66;4970539;28;20236;-74
2022/05/05 06:31:28;;;;;;;13.40;2.85;;;11.90;99.90;;;11.74;100.00;101382.06;4967440;28;20212;-74
2022/05/05 06:33:56;;;;;;;7.97;1.98;;;11.80;99.90;;;11.72;100.00;101389.09;4971871;28;20213;-75
2022/05/05 06:36:24;;;;;;;14.52;2.90;;;11.80;99.90;;;11.76;100.00;101390.06;4973999;28;20224;-73
2022/05/05 06:38:52;;;;;;;10.82;2.30;;;11.80;99.90;;;11.73;100.00;101385.59;4972647;28;20736;-73
2022/05/05 06:41:20;;;;;;;10.55;2.28;;;11.80;99.90;;;11.72;100.00;101390.84;4987312;28;20220;-74
2022/05/05 06:43:48;;;;;;;15.02;3.22;;;11.80;99.90;;;11.71;100.00;101392.63;4957013;28;20209;-74
2022/05/05 06:46:16;;;;;;;13.05;2.70;;;11.80;99.90;;;11.79;100.00;101399.00;4977405;28;20605;-74
2022/05/05 06:48:57;;;;;;;13.20;2.72;;;11.80;99.90;;;11.75;100.00;101385.63;4968291;28;20233;-73
2022/05/05 06:51:25;;;;;;;4.60;1.08;;;11.80;99.90;;;11.73;100.00;101385.59;4954465;28;20205;-73
2022/05/05 06:53:53;;;;;;;9.85;2.13;;;11.70;99.90;;;11.80;100.00;101381.34;4957412;28;20663;-75
2022/05/05 06:56:24;;;;;;;6.32;1.42;;;11.70;99.90;;;11.82;100.00;101375.19;4980253;28;20220;-75
2022/05/05 06:58:52;;;;;;;13.00;2.80;;;11.80;99.90;;;11.81;100.00;101365.47;4970414;28;20209;-74
2022/05/05 07:06:53;;;;;;;7.78;1.73;;;11.80;99.90;;;11.83;100.00;101355.78;4967153;28;20229;-74
2022/05/05 07:12:08;;;;;;;7.85;1.83;;;11.80;99.90;;;11.81;100.00;101351.31;4971913;28;20221;-74
2022/05/05 07:14:36;;;;;;;12.73;2.72;;;11.80;99.90;;;11.84;100.00;101365.53;4967767;28;20228;-74
2022/05/05 07:17:04;;;;;;;7.97;1.77;;;11.80;99.90;;;11.79;100.00;101356.59;4976104;28;20697;-73
2022/05/05 07:19:32;;;;;;;12.57;2.55;;;11.80;99.90;;;11.86;100.00;101368.19;4974753;28;20209;-74
2022/05/05 07:22:00;;;;;;;8.50;1.80;;;11.80;99.90;;;11.92;100.00;101372.72;4982162;28;20216;-73
2022/05/05 07:24:31;;;;;;;6.35;1.48;;;11.90;99.90;;;11.90;100.00;101374.44;4978945;28;20205;-73
2022/05/05 07:27:02;;;;;;;5.05;1.10;;;11.90;99.90;;;11.93;100.00;101371.84;4968937;28;20245;-73
2022/05/05 07:29:31;;;;;;;9.10;1.90;;;11.80;99.90;;;11.93;100.00;101372.75;4979336;28;20233;-73
2022/05/05 07:31:59;;;;;;;5.15;1.10;;;11.90;99.90;;;11.95;100.00;101381.63;4958105;28;20208;-73
2022/05/05 07:34:27;;;;;;;5.32;1.27;;;11.90;99.90;;;12.02;100.00;101379.97;4979594;28;20213;-73
2022/05/05 07:36:56;;;;;;;8.38;1.80;;;12.00;99.90;;;12.03;100.00;101382.66;4977586;28;20228;-74
2022/05/05 07:39:23;;;;;;;7.05;1.52;;;12.00;99.90;;;12.06;100.00;101377.41;4974821;28;20208;-73
2022/05/05 07:41:51;;;;;;;7.78;1.63;;;12.00;99.90;;;12.07;100.00;101371.25;4974386;28;20228;-73
2022/05/05 07:44:20;;;;;;;11.80;2.35;;;12.00;99.90;;;12.12;100.00;101361.59;4967409;28;20210;-73
2022/05/05 07:46:48;;;;;;;12.40;2.70;;;12.10;99.90;;;12.12;100.00;101350.09;4979119;28;20240;-73
2022/05/05 07:49:16;;;;;;;11.15;2.42;;;12.10;99.90;;;12.18;100.00;101356.41;4975021;28;20240;-73
2022/05/05 07:51:44;;;;;;;13.15;2.63;;;12.10;99.90;;;12.22;100.00;101345.84;4959347;28;20210;-73
2022/05/05 07:56:58;;;;;;;14.40;2.92;;;12.20;99.90;;;12.36;100.00;101342.56;4972962;28;20317;-73
2022/05/05 07:59:26;;;;;;;23.08;4.63;;;12.20;99.90;;;12.35;100.00;101332.81;4974244;28;20205;-73
2022/05/05 08:01:54;;;;;;;16.85;3.58;;;12.30;99.90;;;12.42;100.00;101318.78;4972259;28;20236;-76
2022/05/05 08:04:22;;;;;;;14.60;2.97;;;12.30;99.90;;;12.52;100.00;101325.13;4971333;28;20213;-73
2022/05/05 08:06:51;;;;;;;13.98;2.80;;;12.30;99.90;;;12.58;100.00;101327.88;4971581;28;20233;-73
2022/05/05 08:09:19;;;;;;;8.98;2.10;;;12.40;99.90;;;12.74;100.00;101335.19;4977688;28;20202;-74
2022/05/05 08:12:01;;;;;;;12.65;2.55;;;12.60;99.90;;;12.84;100.00;101341.50;4967001;28;20221;-74
2022/05/05 08:14:29;;;;;;;16.88;3.40;;;12.60;99.90;;;12.97;100.00;101353.19;4969513;28;20210;-74
2022/05/05 08:16:58;;;;;;;14.00;2.92;;;12.70;99.90;;;12.92;100.00;101325.69;4981731;28;20235;-73
2022/05/05 08:19:26;;;;;;;11.40;2.47;;;12.80;99.90;;;13.00;100.00;101322.31;4976302;28;20213;-73
2022/05/05 08:21:54;;;;;;;12.35;2.58;;;12.90;99.90;;;13.11;100.00;101331.31;4969850;28;20217;-73
2022/05/05 08:29:55;;;;;;;15.77;3.25;;;13.00;99.90;;;13.24;100.00;101289.88;4967196;28;20221;-73
2022/05/05 08:32:24;;;;;;;13.88;2.92;;;13.10;99.90;;;13.23;100.00;101245.59;4971456;28;20206;-74
2022/05/05 08:34:52;;;;;;;13.18;2.92;;;13.10;99.90;;;13.37;100.00;101236.00;4958780;28;20210;-74
2022/05/05 08:37:20;;;;;;;14.43;3.00;;;13.20;99.90;;;13.43;100.00;101232.53;4974551;28;20229;-73
2022/05/05 08:39:48;;;;;;;2.55;0.63;;;13.30;99.90;;;13.45;100.00;101236.09;4972447;28;20579;-73
2022/05/05 08:42:16;;;;;;;4.88;1.15;;;13.40;99.90;;;13.50;100.00;101223.75;4969657;28;20660;-73
2022/05/05 08:44:44;;;;;;;4.38;0.98;;;13.40;99.90;;;13.45;100.00;101206.84;4970462;28;20220;-73
2022/05/05 08:47:16;;;;;;;16.60;3.55;;;13.40;99.90;;;13.45;100.00;101205.09;4964647;28;20221;-73
2022/05/05 08:49:45;;;;;;;8.13;1.88;;;13.40;99.90;;;13.43;100.00;101206.84;4972302;28;20216;-73
2022/05/05 08:52:21;;;;;;;4.55;1.00;;;13.40;99.90;;;13.47;100.00;101215.72;4951504;28;20210;-74
2022/05/05 08:54:49;;;;;;;7.57;1.63;;;13.50;99.90;;;13.45;100.00;101194.47;4960717;28;20209;-74
2022/05/05 08:57:18;;;;;;;4.55;1.08;;;13.50;99.90;;;13.45;100.00;101197.13;4956351;28;20236;-74
2022/05/05 08:59:46;;;;;;;7.72;1.75;;;13.50;99.90;;;13.39;100.00;101170.50;4969163;28;20216;-73
2022/05/05 09:02:14;;;;;;;13.25;2.70;;;13.40;99.90;;;13.49;100.00;101189.19;4971336;28;20197;-73
2022/05/05 09:04:45;;;;;;;18.88;3.83;;;13.50;99.90;;;13.38;100.00;101178.44;4964601;28;20228;-73
2022/05/05 09:07:13;;;;;;;13.05;2.70;;;13.40;99.90;;;13.45;100.00;101177.63;4969388;28;20237;-74
2022/05/05 09:09:41;;;;;;;19.98;4.22;;;13.40;99.90;;;13.52;100.00;101186.53;4952519;28;20228;-74
2022/05/05 09:12:20;;;;;;;14.57;3.15;;;13.50;99.90;;;13.65;100.00;101204.38;4968914;28;20223;-73
2022/05/05 09:14:53;;;;;;;15.85;3.25;;;13.50;99.90;;;13.59;100.00;101178.66;4969261;28;20220;-74
2022/05/05 09:17:29;;;;;;;13.30;2.67;;;13.60;99.90;;;13.72;100.00;101200.91;4969660;28;20224;-74
2022/05/05 09:19:59;;;;;;;11.73;2.55;;;13.60;99.90;;;13.83;100.00;101200.97;4970370;28;20215;-75
2022/05/05 09:22:28;;;;;;;10.13;2.20;;;13.70;99.90;;;13.80;100.00;101177.03;4978836;28;20208;-74
2022/05/05 09:24:57;;;;;;;21.80;4.25;;;13.80;99.90;;;13.87;100.00;101178.84;4970423;28;20831;-75
2022/05/05 09:27:27;;;;;;;15.75;3.25;;;13.80;99.90;;;13.93;100.00;101170.94;4971776;28;20229;-74
2022/05/05 09:30:08;;;;;;;13.95;2.83;;;13.90;99.90;;;13.84;100.00;101155.78;4970497;28;20213;-74
2022/05/05 09:32:40;;;;;;;15.70;3.42;;;13.90;99.90;;;13.87;100.00;101160.25;4970641;28;20213;-75
2022/05/05 09:35:15;;;;;;;24.50;4.72;;;13.90;99.90;;;13.97;100.00;101170.97;4969920;28;20209;-74
2022/05/05 09:37:49;;;;;;;10.02;1.95;;;13.90;99.90;;;14.03;100.00;101168.34;4967985;28;20236;-75
2022/05/05 09:40:25;;;;;;;14.15;2.90;;;14.10;99.90;;;14.03;100.00;101160.34;4966012;28;20216;-74
2022/05/05 09:42:55;;;;;;;13.30;2.70;;;14.00;99.90;;;13.92;100.00;101138.13;4966766;28;20204;-74
2022/05/05 09:45:26;;;;;;;7.40;1.48;;;14.00;99.90;;;14.00;100.00;101140.84;4969818;28;20224;-74
2022/05/05 09:47:58;;;;;;;15.85;3.35;;;14.00;99.90;;;14.10;100.00;101146.22;4967901;28;20213;-74
2022/05/05 09:50:33;;;;;;;14.40;2.95;;;14.10;99.90;;;14.27;100.00;101161.38;4968949;28;20228;-74
2022/05/05 09:58:39;;;;;;;10.27;2.13;;;14.40;99.90;;;14.45;100.00;101129.63;4952683;28;20665;-74
2022/05/05 10:01:21;;;;;;;14.38;2.92;;;14.40;99.90;;;14.42;100.00;101100.31;4970141;28;20224;-74
2022/05/05 10:04:05;;;;;;;14.63;2.97;;;14.40;99.90;;;14.63;100.00;101112.81;4952483;28;20213;-74
2022/05/05 10:06:42;;;;;;;30.23;5.70;;;14.60;99.90;;;14.65;100.00;101111.06;4949402;28;20810;-74
2022/05/05 10:09:14;;;;;;;12.05;2.45;;;14.70;99.90;;;14.52;100.00;101082.63;4962235;28;20213;-75
2022/05/05 10:11:42;;;;;;;16.38;3.17;;;14.70;99.90;;;14.56;100.00;101085.28;4968072;28;20241;-75
2022/05/05 10:14:12;;;;;;;8.07;1.65;;;14.70;99.90;;;14.51;100.00;101062.22;4969681;28;20213;-74
2022/05/05 10:16:42;;;;;;;11.98;2.38;;;14.60;99.90;;;14.61;100.00;101077.31;4974652;28;20236;-73
2022/05/05 10:19:11;;;;;;;14.77;3.00;;;14.70;99.90;;;14.57;100.00;101064.88;4971460;28;20205;-74
2022/05/05 10:22:19;;;;;;;15.90;3.03;;;14.70;99.90;;;14.69;100.00;101072.91;4969319;28;20213;-74
2022/05/05 10:25:11;;;;;;;13.30;2.67;;;14.80;99.90;;;14.48;100.00;101031.16;4955454;28;20655;-74
2022/05/05 10:27:43;;;;;;;7.50;1.67;;;14.80;99.90;;;14.69;100.00;101067.59;4955056;28;20255;-74
2022/05/05 10:30:16;;;;;;;10.82;2.30;;;14.80;99.90;;;14.60;100.00;101041.81;4971605;28;20209;-74
2022/05/05 10:32:44;;;;;;;7.55;1.70;;;14.80;99.90;;;14.70;100.00;101053.38;4963238;28;20212;-75
2022/05/05 10:35:12;;;;;;;18.95;3.85;;;14.80;99.90;;;14.57;100.00;101022.31;4954929;28;20216;-75
2022/05/05 10:37:40;;;;;;;14.52;2.90;;;14.80;99.90;;;14.60;100.00;100996.56;4975887;28;20205;-74
2022/05/05 10:40:10;;;;;;;12.38;2.60;;;14.80;99.90;;;14.58;100.00;100971.72;4970452;28;20212;-74
2022/05/05 10:42:45;;;;;;;13.15;2.65;;;14.70;99.90;;;14.50;100.00;100959.28;4975185;28;20228;-74
2022/05/05 10:45:26;;;;;;;11.75;2.47;;;14.70;99.90;;;14.59;100.00;100991.25;4956805;28;20583;-73